Alorton, Illinois
Current Conditions -  °F | °C
As of 2:53 PM on Thursday 18 Dec 2014 (Local Time) from KCPS Reporting Station
Overcast Overcast  
Wind Chill:   Ceiling: 1800
Heat Index:   Visibility: 8mi
Dew Point: -2°   Wind: 0mph
Humidity: 78%   Direction: NA
Pressure: 30.23"   Gusts: NA
Location:  38.5841°N, 90.126°W
Report Text: KCPS 182053Z 00000KT 8SM OVC018 02/M02 A3023 RMK AO2 SLP241 60000 T00171017 56013
Loading
Personal Weather Stations






























Interactive Weather Map New forecast layout! Learn more

10-Day Weather Forecast

Advertisements
Track Severe Weather on mobile